Aviation Digital Data Service (ADDS)

Output produced by METARs form (1437 UTC 19 April 2019)
found at http://www.aviationweather.gov/metar/data/
 
VEAT 191400Z 00000KT 4000 HZ FEW020 SCT100 29/24 Q1007 NOSIG
TAF VEAT 191400Z 1915/1924 00000KT 4000 BR FEW020 SCT100 
     BECMG 1921/1923 3000 BR
       
VOAT 191130Z 34005KT 6000 SCT015 31/24 Q1007 NOSIG
VIAG 191330Z VRB02KT 6000 FEW030 28/14 Q1008 NOSIG
TAF VIAG 190930Z 1912/1924 VRB02KT 6000 SCT030
       
VAAH 191430Z 35002KT 4000 FU NSC 32/09 Q1008 NOSIG
TAF VAAH 191400Z 1915/1924 35005KT 4000 FU NSC 
     BECMG 1922/1924 04005KT
       
TAF VEAN 190500Z 1906/1915 21007KT 3000 -TSRA BR SCT010 SCT018 FEW025CB BKN090 
     BECMG 1911/1913 00000KT 3000 BR SCT018 BKN100
       
VIAR 191430Z VRB02KT 4000 HZ FEW100 26/14 Q1009 NOSIG
TAF VIAR 191400Z 1915/1924 30003KT 5000 HZ FEW100 
     BECMG 1918/1920 00000KT 3000 BR
       
VAAU 191400Z VRB02KT 5000 HZ FEW100 33/11 Q1009 NOSIG
TAF VAAU 191100Z 1912/1921 29007KT 5000 HZ FEW020 
     BECMG 1913/1915 4000 HZ
       
VEBD 191330Z VRB01KT 6000 FEW030 SCT250 25/17 Q1007 NOSIG
TAF VEBD 190930Z 1912/1924 29005KT 6000 SCT025 SCT100 
     TEMPO 1912/1915 FEW030TCU/CB
       
VOBG 191400Z 11006KT 9999 FEW015 FEW025CB 30/15 Q1012
TAF VOBG 191400Z 1915/1924 12005KT 6000 FEW015 
     TEMPO 1915/1918 FEW015 FEW025CB
       
VABV 191400Z 08003KT 4000 FU NSC 33/11 Q1007
TAF VABV 191400Z 1915/1924 25005KT 5000 HZ FEW080 
     BECMG 1921/1923 32005KT
       
VABP 191430Z 01008KT 6000 NSC 29/10 Q1010 NOSIG
TAF VABP 191400Z 1915/1924 29006KT 6000 NSC
       
VEBS 191430Z 18003KT 5000 HZ FEW020 30/26 Q1009 NOSIG
TAF VEBS 191400Z 1915/1924 17008KT 4000 HZ SCT018 FEW030CB SCT100 
     TEMPO 1916/1920 2000 -TSRA 
     BECMG 1920/1922 3000 BR FEW020 BKN090
       
TAF VABJ 191400Z 1915/1924 32004KT 6000 FEW080
       
VERC 191430Z 13002KT 4000 HZ SCT020 FEW030 BKN100 24/13 Q1012 NOSIG
TAF VERC 191100Z 1912/1921 25002KT 4000 HZ SCT020 FEW030CB SCT100 
     BECMG 1916/1918 15006KT 3000 HZ SCT100
       
VOCL 191430Z 05006KT 6000 SCT015 SCT020 FEW025CB 30/25 Q1010 TEMPO TSRA
TAF VOCL 191400Z 1915/1924 30005KT 5000 TSRA RA SCT015 FEW025CB BKN080 
     BECMG 1915/1916 VRB03KT 4000 BR SCT015 SCT080
       
VICG 191330Z 34006KT 6000 FEW030 28/12 Q1009 NOSIG
TAF VICG 190930Z 1912/1924 03007KT 6000 FEW030 
     PROB30 
     TEMPO 1912/1914 05007KT 6000 FEW030 FEW030TCU
       
VOMM 191430Z 14009KT 6000 FEW020 32/27 Q1009 NOSIG
TAF VOMM 191100Z 1912/2018 16010G20KT 6000 SCT020 SCT100 
     BECMG 1914/1915 16010KT 
     BECMG 1921/1922 23005KT 5000 BR 
     BECMG 2003/2004 16010KT 6000 
     BECMG 2007/2008 16010G20KT 
     BECMG 2014/2015 16010KT
       
VABB 191430Z 29004KT 4000 FU NSC 30/20 Q1007 NOSIG
TAF VABB 191400Z 1915/1924 34006KT 3000 HZ FU NSC 
     BECMG 1922/1924 VRB03KT 2000 BR HZ
       
VOCI 191400Z 09003KT 4000 BR SCT015 FEW025CB BKN090 25/23 Q1009 NOSIG
TAF VOCI 191400Z 1915/1924 09005KT 4000 BR SCT015 FEW025CB BKN090 
     TEMPO 1914/1916 2000 -TSRA RA SCT010 FEW025CB BKN080 
     BECMG 1922/1924 2000 BR SCT015
       
VOCB 191430Z VRB03KT 5000 HZ SCT015 FEW025CB BKN080 29/21 Q1011 NOSIG
TAF VOCB 191100Z 1912/2018 20010KT 6000 SCT015 SCT080 
     TEMPO 1912/1918 4000 -TSRA/RA SCT015 FEW020CB BKN080 
     BECMG 1916/1917 4000 BR 
     TEMPO 2000/2003 3000 BR 
     BECMG 2005/2007 6000
       
VOCP 191100Z 10008KT 6000 FEW020 39/18 Q1003
TAF VOCP 190500Z 1906/1915 12010KT 6000 FEW020 
     TEMPO 1909/1912 FEW030CB
       
VIDN 191430Z 06004KT 3000 HZ SCT040 27/13 Q1010
TAF VIDN 191100Z 1912/1921 27005KT 5000 HZ SCT040 
     BECMG 1913/1914 01005KT 3000 HZ SCT100
       
VAID 191200Z 34004KT 6000 SCT025 34/13 Q1009 NOSIG
TAF VAID 191400Z 1915/1924 32006KT 6000 NSC
       
VEMN 191200Z 08006KT 5000 HZ SCT020 BKN100 27/19 Q1008 NOSIG
TAF VEMN 191100Z 1912/1921 05010KT 4000 HZ FEW020 FEW025CB BKN100 
     TEMPO 1918/1921 23015KT 1500 -TSRA FEW007 SCT015 FEW025CB OVC090
       
VEGK 191330Z 30005KT 6000 SKC 31/12 Q1006 NOSIG
TAF VEGK 190930Z 1912/1924 28005KT 6000 SKC 
     BECMG 1922/1924 VRB02KT
       
VEGT 191430Z 00000KT 3500 HZ SCT018 FEW025CB BKN100 29/21 Q1007 NOSIG
TAF VEGT 191400Z 1915/1924 00000KT 3000 HZ BR SCT018 BKN100
       
VIGR 191330Z 33004KT 6000 SCT030 30/12 Q1008 NOSIG
TAF VIGR 190930Z 1912/2000 28005KT 6000 SCT030 
     BECMG 1922/1924 VRB02KT 4000 BR/HZ FEW100 
     TEMPO 1912/1914 27007KT FEW40TCU
       
VOHY 191430Z 10005KT 6000 SCT020 SCT025 FEW030CB 27/23 Q1012 NOSIG
TAF VOHY 191100Z 1912/1921 12005KT 5000 HZ SCT020 SCT100 
     TEMPO 1912/1915 FEW030CB
       
VEIM 191200Z 25006KT 5000 HZ FEW018 SCT100 28/16 Q1010 NOSIG
TAF VEIM 191100Z 1912/1921 26006KT 4000 HZ SCT018 BKN100 
     TEMPO 1915/1917 2500 -TSRA SCT018 FEW025CB SCT100 
     BECMG 1920/1921 3000 BR TS
       
VIDP 191400Z 25004KT 5000 HZ NSC 29/13 Q1009 NOSIG
TAF VIDP 191400Z 1915/1924 26006KT 4000 HZ FEW100 
     BECMG 1920/1922 29004KT 3000 HZ
       
VAJB 191400Z 00000KT 4000 HZ NSC 31/09 Q1009
TAF VAJB 191400Z 1915/1924 36006KT 6000 NSC
       
VIJP 191430Z 00000KT 3000 HZ FEW035 29/10 Q1010 NOSIG
TAF VIJP 191400Z 1915/1924 VRB02KT 2500 HZ NSC
       
TAF VIJR 190930Z 1912/1924 34005KT 6000 NSC 
     BECMG 1918/1920 18010KT
       
VIJU 191330Z VRB02KT 6000 FEW025 29/14 Q1008 NOSIG
TAF VIJU 190930Z 1918/2012 05010KT 6000 FEW025 SCT250 
     BECMG 2003/2005 19010KT 6000 FEW025 SCT250 
     TEMPO 2010/2012 23005KT 6000 FEW025 FEWTCU/CB030 SCT250
       
TAF VAJM 191400Z 1915/1924 29008KT 6000 FEW080
       
VEJS 191200Z 23002KT 5000 HZ NSC 37/18 Q1006
TAF VEJS 191100Z 1912/1921 32005KT 5000 HZ NSC 
     BECMG 1916/1918 30005KT 3000 HZ SCT100
       
VEJH 191430Z 00000KT 5000 HZ SCT020 FEW030CB SCT100 26/18 Q1010
TAF VEJH 190800Z 1909/1918 09003KT 6000 NSC 
     BECMG 1910/1912 SCT018 
     TEMPO 1910/1914 2000 -TSRA BKN018 FEW030CB BKN090
       
TAF VIJO 190930Z 1912/1924 34010KT 6000 FEW030 
     BECMG 02005KT 6000 SKC 
       
TAF VEJT 190930Z 1912/1924 02005KT 6000 SCT025 SCT250 
     BECMG 1920/1921 5000 BR SCT025 SCT090 
     BECMG 1922/1923 3000 BR 
     TEMPO 1915/1918 25010G20KT 3000 TSRA SCT020 FEW025TCU/CB BKN080
       
TAF VAKE 190800Z 1909/1918 34008KT 6000 NSC 
     BECMG 1913/1915 25008KT 5000 FU 
       
VIGG 191000Z 22006KT 8000 FEW035 28/13 Q1013
TAF VIGG 190500Z 1906/1915 VRB02KT 5000 HZ FEW030 SCT080
       
TAF VAKP 191100Z 1912/1921 VRB03KT 5000 HZ FEW020 SCT100 
     BECMG 1913/1915 4000 HZ
       
TAF VIBR 190500Z 1906/1915 VRB02KT 5000 HZ FEW030 SCT080
       
VILH 191330Z 27006KT 6000 SCT070 15/-1 Q1020 NOSIG
TAF VILH 190930Z 1918/2012 28010KT 6000 FEW070 
     TEMPO 2010/2012 29015G25KT
       
VELP 190930Z 02003KT 5000 HZ FEW020 SCT100 32/15 Q1009 NOSIG
TAF VELP 190800Z 1909/1918 07003KT 5000 HZ FEW018 SCT100
       
VELR 191000Z 05005KT 3000 HZ FEW020 BKN100 28/21 Q1007
TAF VELR 190800Z 1909/1918 03007KT 4000 HZ SCT018 BKN100 
     BECMG 1913/1915 04004KT 3000 -RA BR 
     BECMG 1916/1917 00000KT 2500 BR
       
VILK 191400Z 32004KT 5000 HZ NSC 29/13 Q1008 NOSIG
TAF VILK 191400Z 1915/1924 32005KT 5000 HZ NSC 
     BECMG 1918/1920 3000 HZ
       
VOMD 191430Z 27002KT 4000 LTNG HZ SCT018 FEW025CB BKN090 31/24 Q1010 NOSIG
TAF VOMD 191100Z 1912/2018 14010KT 6000 SCT018 SCT100 
     TEMPO 1912/1918 4000 -TSRA/RA SCT018 FEW025CB BKN080 
     BECMG 1921/1922 00000KT 4000 BR 
     BECMG 2003/2005 6000
       
VOML 191430Z 30003KT 6000 FEW015 30/24 Q1009 NOSIG
TAF VOML 191400Z 1915/1924 VRB02KT 6000 FEW015 
     BECMG 1921/1922 11005KT
       
VANP 191430Z 29004KT 3000 HZ FEW100 35/05 Q1007 NOSIG
TAF VANP 191400Z 1915/1924 28005KT 3000 HZ FEW100 
     BECMG 1916/1918 34005KT
       
VECC 191430Z 21004KT 3500 HZ FEW020 29/19 Q1007 NOSIG
TAF VECC 191400Z 1915/1924 22005KT 3500 HZ SCT020 SCT100 
     BECMG 1921/1923 00000KT 2600 HZ
       
VIPT 190900Z 27004KT 7000 FEW030 31/15 Q1009
VEPT 191430Z 18003KT 5000 SCT100 30/13 Q1007 NOSIG
TAF VEPT 191400Z 1915/1924 25004KT 4000 HZ SCT100 
     BECMG 1921/1923 00000KT 3000 HZ FEW100
       
VAPR 191430Z 32010G20KT 6000 NSC 32/11 Q1008
TAF VAPR 191400Z 1915/1924 33010KT 5000 HZ FEW080
       
VOPB 191400Z VRB02KT 3500 FEW018 29/23 Q1009 NOSIG
TAF VAPO 190930Z 1912/1924 28007KT 6000 NSC 
     BECMG 1921/1922 VRB02KT
       
VORY 191430Z 15005KT 6000 SCT020 30/20 Q1008 NOSIG
TAF VORY 190800Z 1909/1918 16008KT 6000 FEW020 SCT025 
     BECMG 1912/1914 00000KT 3000 HZ SCT020
       
VARK 191300Z 340/08KT 6000 FEW080 36/10 Q1007
TAF VARK 191400Z 1915/1924 33005KT 6000 FEW080
       
VIDD 191300Z 25005KT 4000 HZ FEW040 SCT100 30/16 Q1008 NOSIG
TAF VISM 190500Z 1906/1915 VRB02KT 6000 FEW030 SCT080
       
TAF VASL 191100Z 1912/1921 VRB03KT 5000 HZ FEW020 SCT100 
     BECMG 1913/1915 4000 HZ
       
TAF VEKU 190930Z 1912/1924 VRB03KT 6000 FEW030TCU SCT200 
     BECMG 1919/1923 VRB02KT 6000 BKN200 
     BECMG 1923/1924 10003KT 6000 FEW025 SCT200
       
VISR 191330Z VRB02KT 6000 FEW030 SCT200 20/06 Q1016 NOSIG
TAF VISR 190930Z 1912/1924 02005KT 6000 FEW025 SCT200
       
VASU 191400Z 32003KT 6000 NSC 33/14 Q1006
TAF VASU 191400Z 1915/1924 36005KT 5000 FU NSC
       
TAF VETZ 190930Z 1912/1924 23010KT 6000 SCT020 SCT090 
     BECMG 1916/1917 4000 BR SCT020 BKN090 
     TEMPO 1922/1923 23015G25KT 4000 TSRABR SCT020 FEW030CB BKN090
       
VOTV 191430Z 04004KT 4000 HZ SCT015 FEW025CB BKN080 29/25 Q1009 NOSIG
TAF VOTV 191400Z 1915/1924 09005KT 4000 HZ FEW015 FEW025CB SCT080 
     TEMPO 1914/1916 3000 -TSRA RA SCT010 FEW025CB BKN080 
     BECMG 1921/1924 36005KT 2000 BR
       
VOTR 191430Z 15011KT 6000 SCT016 FEW020CB SCT025 33/25 Q1008 NOSIG
TAF VOTR 191100Z 1912/2018 16010KT 6000 SCT016 SCT100 
     TEMPO 1912/1918 4000 -TSRA/RA SCT016 FEW025CB BKN080 
     BECMG 1921/1922 4000 BR 
     BECMG 2005/2006 6000
       
VOTP 191400Z 03004KT 6000 FEW020 33/24 Q1007
TAF VOTP 190800Z 1909/1918 2208KT 6000 SCT020 
     BECMG 1914/1916 07005KT 6000 NSC 
     TEMPO 1909/1915 FEW030CB
       
VAUD 191400Z 03005KT 6000 FEW035 30/10 Q1011 BECMG 5000 IN HZ
TAF VAUD 191100Z 1912/1921 18005KT 6000 FEW030 
     BECMG 1913/1914 VRB02KT 5000 HZ NSC
       
VABO 191430Z 31004KT 6000 NSC 32/15 Q1007 NOSIG
TAF VABO 191400Z 1915/1924 36004KT 6000 NSC
       
VOBZ 191430Z 16005KT 4500 HZ FEW020 31/25 Q1007 NOSIG
TAF VOBZ 190800Z 1909/1918 16008KT 6000 FEW020 SCT025 
     BECMG 1912/1914 00000KT 3000 HZ SCT020 
     TEMPO 1909/1915 FEW030CB